sensor_id;sensor_type;location;lat;lon;timestamp;temperature;humidity
43665;DHT22;29263;48.172;11.484;2024-02-21T00:00:15;4.60;99.90
43665;DHT22;29263;48.172;11.484;2024-02-21T00:02:41;4.70;99.90
43665;DHT22;29263;48.172;11.484;2024-02-21T00:05:06;4.70;99.90
43665;DHT22;29263;48.172;11.484;2024-02-21T00:07:32;4.70;99.90
43665;DHT22;29263;48.172;11.484;2024-02-21T00:09:58;4.70;99.90
43665;DHT22;29263;48.172;11.484;2024-02-21T00:12:23;4.70;99.90
43665;DHT22;29263;48.172;11.484;2024-02-21T00:14:49;4.80;99.90
43665;DHT22;29263;48.172;11.484;2024-02-21T00:17:15;4.70;99.90
43665;DHT22;29263;48.172;11.484;2024-02-21T00:19:41;4.70;99.90
43665;DHT22;29263;48.172;11.484;2024-02-21T00:22:06;4.80;99.90
43665;DHT22;29263;48.172;11.484;2024-02-21T00:24:32;4.70;99.90
43665;DHT22;29263;48.172;11.484;2024-02-21T00:26:57;4.60;99.90
43665;DHT22;29263;48.172;11.484;2024-02-21T00:29:23;4.70;99.90
43665;DHT22;29263;48.172;11.484;2024-02-21T00:31:49;4.80;99.90
43665;DHT22;29263;48.172;11.484;2024-02-21T00:34:15;4.80;99.90
43665;DHT22;29263;48.172;11.484;2024-02-21T00:36:40;4.80;99.90
43665;DHT22;29263;48.172;11.484;2024-02-21T00:39:06;4.80;99.90
43665;DHT22;29263;48.172;11.484;2024-02-21T00:41:31;4.80;99.90
43665;DHT22;29263;48.172;11.484;2024-02-21T00:43:57;4.80;99.90
43665;DHT22;29263;48.172;11.484;2024-02-21T00:46:23;4.90;99.90
43665;DHT22;29263;48.172;11.484;2024-02-21T00:48:48;5.00;99.90
43665;DHT22;29263;48.172;11.484;2024-02-21T00:51:15;4.80;99.90
43665;DHT22;29263;48.172;11.484;2024-02-21T00:53:42;4.80;99.90
43665;DHT22;29263;48.172;11.484;2024-02-21T00:56:08;4.80;99.90
43665;DHT22;29263;48.172;11.484;2024-02-21T00:58:33;4.90;99.90
43665;DHT22;29263;48.172;11.484;2024-02-21T01:01:00;4.80;99.90
43665;DHT22;29263;48.172;11.484;2024-02-21T01:03:26;4.90;99.90
43665;DHT22;29263;48.172;11.484;2024-02-21T01:05:51;4.90;99.90
43665;DHT22;29263;48.172;11.484;2024-02-21T01:08:17;4.80;99.90
43665;DHT22;29263;48.172;11.484;2024-02-21T01:10:43;4.80;99.90
43665;DHT22;29263;48.172;11.484;2024-02-21T01:13:09;4.80;99.90
43665;DHT22;29263;48.172;11.484;2024-02-21T01:15:34;4.80;99.90
43665;DHT22;29263;48.172;11.484;2024-02-21T01:18:01;4.70;99.90
43665;DHT22;29263;48.172;11.484;2024-02-21T01:20:26;4.80;99.90
43665;DHT22;29263;48.172;11.484;2024-02-21T01:22:52;4.70;99.90
43665;DHT22;29263;48.172;11.484;2024-02-21T01:25:18;4.70;99.90
43665;DHT22;29263;48.172;11.484;2024-02-21T01:27:43;4.70;99.90
43665;DHT22;29263;48.172;11.484;2024-02-21T01:30:09;4.70;99.90
43665;DHT22;29263;48.172;11.484;2024-02-21T01:32:36;4.70;99.90
43665;DHT22;29263;48.172;11.484;2024-02-21T01:35:02;4.70;99.90
43665;DHT22;29263;48.172;11.484;2024-02-21T01:37:27;4.60;99.90
43665;DHT22;29263;48.172;11.484;2024-02-21T01:39:53;4.60;99.90
43665;DHT22;29263;48.172;11.484;2024-02-21T01:42:18;4.60;99.90
43665;DHT22;29263;48.172;11.484;2024-02-21T01:44:44;4.70;99.90
43665;DHT22;29263;48.172;11.484;2024-02-21T01:47:11;4.80;99.90
43665;DHT22;29263;48.172;11.484;2024-02-21T01:49:40;4.70;99.90
43665;DHT22;29263;48.172;11.484;2024-02-21T01:52:06;4.70;99.90
43665;DHT22;29263;48.172;11.484;2024-02-21T01:54:32;4.70;99.90
43665;DHT22;29263;48.172;11.484;2024-02-21T01:56:58;4.70;99.90
43665;DHT22;29263;48.172;11.484;2024-02-21T01:59:24;4.70;99.90
43665;DHT22;29263;48.172;11.484;2024-02-21T02:01:51;4.70;99.90
43665;DHT22;29263;48.172;11.484;2024-02-21T02:04:17;4.80;99.90
43665;DHT22;29263;48.172;11.484;2024-02-21T02:06:42;4.90;99.90
43665;DHT22;29263;48.172;11.484;2024-02-21T02:09:08;4.90;99.90
43665;DHT22;29263;48.172;11.484;2024-02-21T02:11:35;4.90;99.90
43665;DHT22;29263;48.172;11.484;2024-02-21T02:14:01;4.80;99.90
43665;DHT22;29263;48.172;11.484;2024-02-21T02:16:26;4.80;99.90
43665;DHT22;29263;48.172;11.484;2024-02-21T02:18:52;4.90;99.90
43665;DHT22;29263;48.172;11.484;2024-02-21T02:21:34;4.90;99.90
43665;DHT22;29263;48.172;11.484;2024-02-21T02:24:04;4.90;99.90
43665;DHT22;29263;48.172;11.484;2024-02-21T02:26:30;4.90;99.90
43665;DHT22;29263;48.172;11.484;2024-02-21T02:28:55;4.90;99.90
43665;DHT22;29263;48.172;11.484;2024-02-21T02:31:21;4.80;99.90
43665;DHT22;29263;48.172;11.484;2024-02-21T02:33:46;4.90;99.90
43665;DHT22;29263;48.172;11.484;2024-02-21T02:36:13;4.80;99.90
43665;DHT22;29263;48.172;11.484;2024-02-21T02:38:39;4.80;99.90
43665;DHT22;29263;48.172;11.484;2024-02-21T02:41:05;4.90;99.90
43665;DHT22;29263;48.172;11.484;2024-02-21T02:43:30;4.90;99.90
43665;DHT22;29263;48.172;11.484;2024-02-21T02:45:56;5.00;99.90
43665;DHT22;29263;48.172;11.484;2024-02-21T02:48:22;4.90;99.90
43665;DHT22;29263;48.172;11.484;2024-02-21T02:50:48;4.90;99.90
43665;DHT22;29263;48.172;11.484;2024-02-21T02:53:15;4.90;99.90
43665;DHT22;29263;48.172;11.484;2024-02-21T02:55:40;4.90;99.90
43665;DHT22;29263;48.172;11.484;2024-02-21T02:58:06;4.90;99.90
43665;DHT22;29263;48.172;11.484;2024-02-21T03:00:31;4.80;99.90
43665;DHT22;29263;48.172;11.484;2024-02-21T03:03:01;4.90;99.90
43665;DHT22;29263;48.172;11.484;2024-02-21T03:05:29;4.90;99.90
43665;DHT22;29263;48.172;11.484;2024-02-21T03:07:55;4.90;99.90
43665;DHT22;29263;48.172;11.484;2024-02-21T03:10:21;4.90;99.90
43665;DHT22;29263;48.172;11.484;2024-02-21T03:12:46;4.90;99.90
43665;DHT22;29263;48.172;11.484;2024-02-21T03:15:13;4.90;99.90
43665;DHT22;29263;48.172;11.484;2024-02-21T03:17:38;4.90;99.90
43665;DHT22;29263;48.172;11.484;2024-02-21T03:20:05;4.90;99.90
43665;DHT22;29263;48.172;11.484;2024-02-21T03:22:31;4.90;99.90
43665;DHT22;29263;48.172;11.484;2024-02-21T03:24:58;4.90;99.90
43665;DHT22;29263;48.172;11.484;2024-02-21T03:27:23;4.80;99.90
43665;DHT22;29263;48.172;11.484;2024-02-21T03:29:49;4.80;99.90
43665;DHT22;29263;48.172;11.484;2024-02-21T03:32:14;4.80;99.90
43665;DHT22;29263;48.172;11.484;2024-02-21T03:34:40;4.90;99.90
43665;DHT22;29263;48.172;11.484;2024-02-21T03:37:06;4.80;99.90
43665;DHT22;29263;48.172;11.484;2024-02-21T03:39:31;4.90;99.90
43665;DHT22;29263;48.172;11.484;2024-02-21T03:41:59;4.90;99.90
43665;DHT22;29263;48.172;11.484;2024-02-21T03:44:32;4.90;99.90
43665;DHT22;29263;48.172;11.484;2024-02-21T03:46:59;4.90;99.90
43665;DHT22;29263;48.172;11.484;2024-02-21T03:49:24;4.90;99.90
43665;DHT22;29263;48.172;11.484;2024-02-21T03:51:50;4.80;99.90
43665;DHT22;29263;48.172;11.484;2024-02-21T03:54:15;4.80;99.90
43665;DHT22;29263;48.172;11.484;2024-02-21T03:56:41;4.80;99.90
43665;DHT22;29263;48.172;11.484;2024-02-21T03:59:07;4.80;99.90
43665;DHT22;29263;48.172;11.484;2024-02-21T04:01:34;4.80;99.90
43665;DHT22;29263;48.172;11.484;2024-02-21T04:03:59;4.80;99.90
43665;DHT22;29263;48.172;11.484;2024-02-21T04:06:25;4.80;99.90
43665;DHT22;29263;48.172;11.484;2024-02-21T04:08:51;4.70;99.90
43665;DHT22;29263;48.172;11.484;2024-02-21T04:11:16;4.80;99.90
43665;DHT22;29263;48.172;11.484;2024-02-21T04:13:44;4.80;99.90
43665;DHT22;29263;48.172;11.484;2024-02-21T04:16:10;4.80;99.90
43665;DHT22;29263;48.172;11.484;2024-02-21T04:18:36;4.80;99.90
43665;DHT22;29263;48.172;11.484;2024-02-21T04:21:01;4.80;99.90
43665;DHT22;29263;48.172;11.484;2024-02-21T04:23:27;4.70;99.90
43665;DHT22;29263;48.172;11.484;2024-02-21T04:25:52;4.70;99.90
43665;DHT22;29263;48.172;11.484;2024-02-21T04:28:18;4.70;99.90
43665;DHT22;29263;48.172;11.484;2024-02-21T04:30:44;4.70;99.90
43665;DHT22;29263;48.172;11.484;2024-02-21T04:33:09;4.70;99.90
43665;DHT22;29263;48.172;11.484;2024-02-21T04:35:37;4.70;99.90
43665;DHT22;29263;48.172;11.484;2024-02-21T04:38:04;4.60;99.90
43665;DHT22;29263;48.172;11.484;2024-02-21T04:40:30;4.70;99.90
43665;DHT22;29263;48.172;11.484;2024-02-21T04:42:56;4.60;99.90
43665;DHT22;29263;48.172;11.484;2024-02-21T04:45:22;4.70;99.90
43665;DHT22;29263;48.172;11.484;2024-02-21T04:47:48;4.50;99.90
43665;DHT22;29263;48.172;11.484;2024-02-21T04:50:14;4.50;99.90
43665;DHT22;29263;48.172;11.484;2024-02-21T04:52:39;4.50;99.90
43665;DHT22;29263;48.172;11.484;2024-02-21T04:55:05;4.40;99.90
43665;DHT22;29263;48.172;11.484;2024-02-21T04:57:31;4.40;99.90
43665;DHT22;29263;48.172;11.484;2024-02-21T04:59:57;4.40;99.90
43665;DHT22;29263;48.172;11.484;2024-02-21T05:02:22;4.40;99.90
43665;DHT22;29263;48.172;11.484;2024-02-21T05:04:49;4.30;99.90
43665;DHT22;29263;48.172;11.484;2024-02-21T05:07:15;4.30;99.90
43665;DHT22;29263;48.172;11.484;2024-02-21T05:09:42;4.30;99.90
43665;DHT22;29263;48.172;11.484;2024-02-21T05:12:08;4.30;99.90
43665;DHT22;29263;48.172;11.484;2024-02-21T05:14:34;4.30;99.90
43665;DHT22;29263;48.172;11.484;2024-02-21T05:16:59;4.20;99.90
43665;DHT22;29263;48.172;11.484;2024-02-21T05:19:25;4.20;99.90
43665;DHT22;29263;48.172;11.484;2024-02-21T05:21:51;4.20;99.90
43665;DHT22;29263;48.172;11.484;2024-02-21T05:24:16;4.30;99.90
43665;DHT22;29263;48.172;11.484;2024-02-21T05:26:42;4.20;99.90
43665;DHT22;29263;48.172;11.484;2024-02-21T05:29:08;4.20;99.90
43665;DHT22;29263;48.172;11.484;2024-02-21T05:34:17;4.10;99.90
43665;DHT22;29263;48.172;11.484;2024-02-21T05:36:43;4.20;99.90
43665;DHT22;29263;48.172;11.484;2024-02-21T05:39:09;4.20;99.90
43665;DHT22;29263;48.172;11.484;2024-02-21T05:41:35;4.20;99.90
43665;DHT22;29263;48.172;11.484;2024-02-21T05:44:01;4.10;99.90
43665;DHT22;29263;48.172;11.484;2024-02-21T05:46:26;4.20;99.90
43665;DHT22;29263;48.172;11.484;2024-02-21T05:48:52;4.10;99.90
43665;DHT22;29263;48.172;11.484;2024-02-21T05:51:17;4.10;99.90
43665;DHT22;29263;48.172;11.484;2024-02-21T05:53:43;4.20;99.90
43665;DHT22;29263;48.172;11.484;2024-02-21T05:56:13;4.10;99.90
43665;DHT22;29263;48.172;11.484;2024-02-21T05:58:38;4.00;99.90
43665;DHT22;29263;48.172;11.484;2024-02-21T06:01:04;4.10;99.90
43665;DHT22;29263;48.172;11.484;2024-02-21T06:03:32;4.00;99.90
43665;DHT22;29263;48.172;11.484;2024-02-21T06:05:58;4.00;99.90
43665;DHT22;29263;48.172;11.484;2024-02-21T06:08:24;4.00;99.90
43665;DHT22;29263;48.172;11.484;2024-02-21T06:10:49;4.00;99.90
43665;DHT22;29263;48.172;11.484;2024-02-21T06:13:19;3.90;99.90
43665;DHT22;29263;48.172;11.484;2024-02-21T06:15:47;3.90;99.90
43665;DHT22;29263;48.172;11.484;2024-02-21T06:18:12;4.00;99.90
43665;DHT22;29263;48.172;11.484;2024-02-21T06:20:38;4.00;99.90
43665;DHT22;29263;48.172;11.484;2024-02-21T06:23:06;4.10;99.90
43665;DHT22;29263;48.172;11.484;2024-02-21T06:25:31;4.10;99.90
43665;DHT22;29263;48.172;11.484;2024-02-21T06:27:57;4.10;99.90
43665;DHT22;29263;48.172;11.484;2024-02-21T06:30:23;4.10;99.90
43665;DHT22;29263;48.172;11.484;2024-02-21T06:32:48;4.20;99.90
43665;DHT22;29263;48.172;11.484;2024-02-21T06:35:14;4.20;99.90
43665;DHT22;29263;48.172;11.484;2024-02-21T06:37:39;4.20;99.90
43665;DHT22;29263;48.172;11.484;2024-02-21T06:40:06;4.20;99.90
43665;DHT22;29263;48.172;11.484;2024-02-21T06:42:31;4.20;99.90
43665;DHT22;29263;48.172;11.484;2024-02-21T06:44:57;4.20;99.90
43665;DHT22;29263;48.172;11.484;2024-02-21T06:47:23;4.20;99.90
43665;DHT22;29263;48.172;11.484;2024-02-21T06:49:49;4.20;99.90
43665;DHT22;29263;48.172;11.484;2024-02-21T06:52:17;4.30;99.90
43665;DHT22;29263;48.172;11.484;2024-02-21T06:54:48;4.40;99.90
43665;DHT22;29263;48.172;11.484;2024-02-21T06:57:14;4.40;99.90
43665;DHT22;29263;48.172;11.484;2024-02-21T06:59:41;4.50;99.90
43665;DHT22;29263;48.172;11.484;2024-02-21T07:02:06;4.50;99.90
43665;DHT22;29263;48.172;11.484;2024-02-21T07:04:32;4.50;99.90
43665;DHT22;29263;48.172;11.484;2024-02-21T07:06:58;4.50;99.90
43665;DHT22;29263;48.172;11.484;2024-02-21T07:09:23;4.50;99.90
43665;DHT22;29263;48.172;11.484;2024-02-21T07:11:49;4.60;99.90
43665;DHT22;29263;48.172;11.484;2024-02-21T07:14:15;4.60;99.90
43665;DHT22;29263;48.172;11.484;2024-02-21T07:16:41;4.60;99.90
43665;DHT22;29263;48.172;11.484;2024-02-21T07:19:06;4.70;99.90
43665;DHT22;29263;48.172;11.484;2024-02-21T07:21:32;4.70;99.90
43665;DHT22;29263;48.172;11.484;2024-02-21T07:23:58;4.80;99.90
43665;DHT22;29263;48.172;11.484;2024-02-21T07:26:23;4.90;99.90
43665;DHT22;29263;48.172;11.484;2024-02-21T07:28:49;5.10;99.90
43665;DHT22;29263;48.172;11.484;2024-02-21T07:31:15;5.10;99.90
43665;DHT22;29263;48.172;11.484;2024-02-21T07:33:40;5.00;99.90
43665;DHT22;29263;48.172;11.484;2024-02-21T07:36:10;5.00;99.90
43665;DHT22;29263;48.172;11.484;2024-02-21T07:38:36;5.00;99.90
43665;DHT22;29263;48.172;11.484;2024-02-21T07:41:02;5.10;99.90
43665;DHT22;29263;48.172;11.484;2024-02-21T07:43:29;5.10;99.90
43665;DHT22;29263;48.172;11.484;2024-02-21T07:45:55;5.20;99.90
43665;DHT22;29263;48.172;11.484;2024-02-21T07:48:21;5.20;99.90
43665;DHT22;29263;48.172;11.484;2024-02-21T07:50:50;5.20;99.90
43665;DHT22;29263;48.172;11.484;2024-02-21T07:53:16;5.40;99.90
43665;DHT22;29263;48.172;11.484;2024-02-21T07:55:42;5.50;99.90
43665;DHT22;29263;48.172;11.484;2024-02-21T07:58:07;5.60;99.90
43665;DHT22;29263;48.172;11.484;2024-02-21T08:00:33;5.70;99.90
43665;DHT22;29263;48.172;11.484;2024-02-21T08:02:59;5.70;99.90
43665;DHT22;29263;48.172;11.484;2024-02-21T08:05:24;5.70;99.90
43665;DHT22;29263;48.172;11.484;2024-02-21T08:07:50;5.80;99.90
43665;DHT22;29263;48.172;11.484;2024-02-21T08:10:16;5.80;99.90
43665;DHT22;29263;48.172;11.484;2024-02-21T08:12:41;5.80;99.90
43665;DHT22;29263;48.172;11.484;2024-02-21T08:15:07;5.90;99.90
43665;DHT22;29263;48.172;11.484;2024-02-21T08:17:36;5.90;99.90
43665;DHT22;29263;48.172;11.484;2024-02-21T08:20:02;6.00;99.90
43665;DHT22;29263;48.172;11.484;2024-02-21T08:22:28;6.10;99.90
43665;DHT22;29263;48.172;11.484;2024-02-21T08:24:53;6.20;99.90
43665;DHT22;29263;48.172;11.484;2024-02-21T08:27:19;6.30;99.90
43665;DHT22;29263;48.172;11.484;2024-02-21T08:29:45;6.40;99.90
43665;DHT22;29263;48.172;11.484;2024-02-21T08:32:11;6.50;99.90
43665;DHT22;29263;48.172;11.484;2024-02-21T08:34:37;6.60;99.60
43665;DHT22;29263;48.172;11.484;2024-02-21T08:37:03;6.70;99.10
43665;DHT22;29263;48.172;11.484;2024-02-21T08:39:29;6.80;98.00
43665;DHT22;29263;48.172;11.484;2024-02-21T08:41:55;6.80;98.50
43665;DHT22;29263;48.172;11.484;2024-02-21T08:44:22;6.90;97.80
43665;DHT22;29263;48.172;11.484;2024-02-21T08:46:49;6.90;98.00
43665;DHT22;29263;48.172;11.484;2024-02-21T08:49:15;7.00;96.70
43665;DHT22;29263;48.172;11.484;2024-02-21T08:51:40;7.10;96.70
43665;DHT22;29263;48.172;11.484;2024-02-21T08:54:06;7.10;96.70
43665;DHT22;29263;48.172;11.484;2024-02-21T08:56:31;7.10;96.20
43665;DHT22;29263;48.172;11.484;2024-02-21T08:58:58;7.20;95.70
43665;DHT22;29263;48.172;11.484;2024-02-21T09:01:23;7.30;96.50
43665;DHT22;29263;48.172;11.484;2024-02-21T09:03:49;7.40;95.60
43665;DHT22;29263;48.172;11.484;2024-02-21T09:06:19;7.50;95.60
43665;DHT22;29263;48.172;11.484;2024-02-21T09:08:45;7.60;93.90
43665;DHT22;29263;48.172;11.484;2024-02-21T09:11:11;7.70;94.50
43665;DHT22;29263;48.172;11.484;2024-02-21T09:13:37;7.70;94.20
43665;DHT22;29263;48.172;11.484;2024-02-21T09:16:03;7.70;94.20
43665;DHT22;29263;48.172;11.484;2024-02-21T09:18:29;7.80;93.80
43665;DHT22;29263;48.172;11.484;2024-02-21T09:20:55;7.90;93.60
43665;DHT22;29263;48.172;11.484;2024-02-21T09:23:23;8.00;93.20
43665;DHT22;29263;48.172;11.484;2024-02-21T09:25:49;8.00;93.90
43665;DHT22;29263;48.172;11.484;2024-02-21T09:28:14;8.10;94.10
43665;DHT22;29263;48.172;11.484;2024-02-21T09:30:40;8.10;93.60
43665;DHT22;29263;48.172;11.484;2024-02-21T09:33:05;8.30;92.80
43665;DHT22;29263;48.172;11.484;2024-02-21T09:35:32;8.40;92.50
43665;DHT22;29263;48.172;11.484;2024-02-21T09:37:59;8.50;91.90
43665;DHT22;29263;48.172;11.484;2024-02-21T09:40:25;8.60;92.80
43665;DHT22;29263;48.172;11.484;2024-02-21T09:43:03;8.60;93.20
43665;DHT22;29263;48.172;11.484;2024-02-21T09:45:30;8.70;91.60
43665;DHT22;29263;48.172;11.484;2024-02-21T09:48:20;8.80;91.70
43665;DHT22;29263;48.172;11.484;2024-02-21T09:50:47;8.90;91.70
43665;DHT22;29263;48.172;11.484;2024-02-21T09:53:14;9.00;91.20
43665;DHT22;29263;48.172;11.484;2024-02-21T09:55:40;9.20;89.50
43665;DHT22;29263;48.172;11.484;2024-02-21T09:58:07;9.30;88.50
43665;DHT22;29263;48.172;11.484;2024-02-21T10:00:34;9.40;90.30
43665;DHT22;29263;48.172;11.484;2024-02-21T10:03:00;9.30;88.80
43665;DHT22;29263;48.172;11.484;2024-02-21T10:05:26;9.40;88.40
43665;DHT22;29263;48.172;11.484;2024-02-21T10:07:52;9.50;87.70
43665;DHT22;29263;48.172;11.484;2024-02-21T10:10:19;9.60;87.80
43665;DHT22;29263;48.172;11.484;2024-02-21T10:12:51;9.70;85.50
43665;DHT22;29263;48.172;11.484;2024-02-21T10:15:20;9.80;87.40
43665;DHT22;29263;48.172;11.484;2024-02-21T10:17:58;9.80;84.10
43665;DHT22;29263;48.172;11.484;2024-02-21T10:20:24;9.90;85.00
43665;DHT22;29263;48.172;11.484;2024-02-21T10:23:00;10.00;85.10
43665;DHT22;29263;48.172;11.484;2024-02-21T10:25:27;10.10;83.50
43665;DHT22;29263;48.172;11.484;2024-02-21T10:27:53;10.10;82.10
43665;DHT22;29263;48.172;11.484;2024-02-21T10:30:19;10.10;83.20
43665;DHT22;29263;48.172;11.484;2024-02-21T10:32:54;10.20;81.90
43665;DHT22;29263;48.172;11.484;2024-02-21T10:35:30;10.30;82.10
43665;DHT22;29263;48.172;11.484;2024-02-21T10:37:57;10.30;80.50
43665;DHT22;29263;48.172;11.484;2024-02-21T10:40:26;10.40;81.10
43665;DHT22;29263;48.172;11.484;2024-02-21T10:42:57;10.50;79.80
43665;DHT22;29263;48.172;11.484;2024-02-21T10:45:30;10.60;78.40
43665;DHT22;29263;48.172;11.484;2024-02-21T10:48:03;10.70;75.60
43665;DHT22;29263;48.172;11.484;2024-02-21T10:50:32;10.90;76.20
43665;DHT22;29263;48.172;11.484;2024-02-21T10:53:24;11.00;75.30
43665;DHT22;29263;48.172;11.484;2024-02-21T10:58:46;11.30;74.30
43665;DHT22;29263;48.172;11.484;2024-02-21T11:01:12;11.40;70.40
43665;DHT22;29263;48.172;11.484;2024-02-21T11:03:41;11.50;66.50
43665;DHT22;29263;48.172;11.484;2024-02-21T11:06:10;11.50;67.60
43665;DHT22;29263;48.172;11.484;2024-02-21T11:08:36;11.60;66.00
43665;DHT22;29263;48.172;11.484;2024-02-21T11:11:02;11.60;66.50
43665;DHT22;29263;48.172;11.484;2024-02-21T11:13:35;11.70;66.20
43665;DHT22;29263;48.172;11.484;2024-02-21T11:16:11;11.80;66.90
43665;DHT22;29263;48.172;11.484;2024-02-21T11:18:39;11.90;66.00
43665;DHT22;29263;48.172;11.484;2024-02-21T11:21:05;12.10;68.90
43665;DHT22;29263;48.172;11.484;2024-02-21T11:23:31;12.10;64.60
43665;DHT22;29263;48.172;11.484;2024-02-21T11:26:10;12.30;65.00
43665;DHT22;29263;48.172;11.484;2024-02-21T11:28:44;12.40;64.70
43665;DHT22;29263;48.172;11.484;2024-02-21T11:31:14;12.50;61.20
43665;DHT22;29263;48.172;11.484;2024-02-21T11:33:43;12.50;60.90
43665;DHT22;29263;48.172;11.484;2024-02-21T11:36:09;12.50;60.10
43665;DHT22;29263;48.172;11.484;2024-02-21T11:38:35;12.60;59.90
43665;DHT22;29263;48.172;11.484;2024-02-21T11:41:01;12.50;59.90
43665;DHT22;29263;48.172;11.484;2024-02-21T11:43:27;12.60;60.70
43665;DHT22;29263;48.172;11.484;2024-02-21T11:46:00;12.50;59.70
43665;DHT22;29263;48.172;11.484;2024-02-21T11:48:26;12.50;58.50
43665;DHT22;29263;48.172;11.484;2024-02-21T11:50:53;12.50;60.30
43665;DHT22;29263;48.172;11.484;2024-02-21T11:53:20;12.50;56.90
43665;DHT22;29263;48.172;11.484;2024-02-21T11:55:46;12.40;58.20
43665;DHT22;29263;48.172;11.484;2024-02-21T11:58:12;12.50;57.10
43665;DHT22;29263;48.172;11.484;2024-02-21T12:00:38;12.50;56.80
43665;DHT22;29263;48.172;11.484;2024-02-21T12:03:04;12.40;58.10
43665;DHT22;29263;48.172;11.484;2024-02-21T12:05:31;12.50;57.90
43665;DHT22;29263;48.172;11.484;2024-02-21T12:07:57;12.50;55.70
43665;DHT22;29263;48.172;11.484;2024-02-21T12:10:23;12.50;55.00
43665;DHT22;29263;48.172;11.484;2024-02-21T12:12:49;12.50;55.50
43665;DHT22;29263;48.172;11.484;2024-02-21T12:15:18;12.50;56.80
43665;DHT22;29263;48.172;11.484;2024-02-21T12:17:44;12.60;56.90
43665;DHT22;29263;48.172;11.484;2024-02-21T12:20:10;12.70;56.10
43665;DHT22;29263;48.172;11.484;2024-02-21T12:22:39;12.70;54.50
43665;DHT22;29263;48.172;11.484;2024-02-21T12:25:21;12.80;54.50
43665;DHT22;29263;48.172;11.484;2024-02-21T12:27:48;12.70;54.40
43665;DHT22;29263;48.172;11.484;2024-02-21T12:30:17;12.70;56.40
43665;DHT22;29263;48.172;11.484;2024-02-21T12:32:43;12.90;54.80
43665;DHT22;29263;48.172;11.484;2024-02-21T12:35:09;12.90;54.60
43665;DHT22;29263;48.172;11.484;2024-02-21T12:37:38;13.00;52.50
43665;DHT22;29263;48.172;11.484;2024-02-21T12:40:08;13.10;54.00
43665;DHT22;29263;48.172;11.484;2024-02-21T12:42:41;13.20;54.30
43665;DHT22;29263;48.172;11.484;2024-02-21T12:45:10;13.40;52.50
43665;DHT22;29263;48.172;11.484;2024-02-21T12:47:36;13.40;52.30
43665;DHT22;29263;48.172;11.484;2024-02-21T12:50:04;13.40;52.70
43665;DHT22;29263;48.172;11.484;2024-02-21T12:52:42;13.50;51.50
43665;DHT22;29263;48.172;11.484;2024-02-21T12:58:55;13.50;52.60
43665;DHT22;29263;48.172;11.484;2024-02-21T13:05:17;13.70;51.60
43665;DHT22;29263;48.172;11.484;2024-02-21T13:07:56;13.70;51.20
43665;DHT22;29263;48.172;11.484;2024-02-21T13:10:22;13.70;52.10
43665;DHT22;29263;48.172;11.484;2024-02-21T13:12:48;13.70;51.20
43665;DHT22;29263;48.172;11.484;2024-02-21T13:15:14;13.70;52.00
43665;DHT22;29263;48.172;11.484;2024-02-21T13:17:41;13.70;52.70
43665;DHT22;29263;48.172;11.484;2024-02-21T13:20:10;13.80;52.80
43665;DHT22;29263;48.172;11.484;2024-02-21T13:22:37;13.90;53.00
43665;DHT22;29263;48.172;11.484;2024-02-21T13:25:08;14.00;52.50
43665;DHT22;29263;48.172;11.484;2024-02-21T13:27:37;14.00;52.40
43665;DHT22;29263;48.172;11.484;2024-02-21T13:30:03;14.00;51.30
43665;DHT22;29263;48.172;11.484;2024-02-21T13:32:33;14.00;53.20
43665;DHT22;29263;48.172;11.484;2024-02-21T13:35:01;14.00;52.20
43665;DHT22;29263;48.172;11.484;2024-02-21T13:37:27;14.10;51.60
43665;DHT22;29263;48.172;11.484;2024-02-21T13:39:56;14.10;51.00
43665;DHT22;29263;48.172;11.484;2024-02-21T13:42:28;14.20;50.50
43665;DHT22;29263;48.172;11.484;2024-02-21T13:45:45;14.20;51.00
43665;DHT22;29263;48.172;11.484;2024-02-21T13:48:15;14.20;51.00
43665;DHT22;29263;48.172;11.484;2024-02-21T13:50:50;14.30;51.40
43665;DHT22;29263;48.172;11.484;2024-02-21T13:53:21;14.40;52.00
43665;DHT22;29263;48.172;11.484;2024-02-21T13:56:19;14.50;50.80
43665;DHT22;29263;48.172;11.484;2024-02-21T13:58:48;14.60;50.80
43665;DHT22;29263;48.172;11.484;2024-02-21T14:01:17;14.60;50.20
43665;DHT22;29263;48.172;11.484;2024-02-21T14:04:15;14.70;49.80
43665;DHT22;29263;48.172;11.484;2024-02-21T14:06:47;14.60;49.20
43665;DHT22;29263;48.172;11.484;2024-02-21T14:09:16;14.70;49.00
43665;DHT22;29263;48.172;11.484;2024-02-21T14:11:45;14.60;49.90
43665;DHT22;29263;48.172;11.484;2024-02-21T14:14:19;14.70;49.20
43665;DHT22;29263;48.172;11.484;2024-02-21T14:16:48;14.80;49.70
43665;DHT22;29263;48.172;11.484;2024-02-21T14:19:19;14.80;49.40
43665;DHT22;29263;48.172;11.484;2024-02-21T14:21:45;14.90;48.30
43665;DHT22;29263;48.172;11.484;2024-02-21T14:24:11;15.10;49.50
43665;DHT22;29263;48.172;11.484;2024-02-21T14:26:38;15.50;48.10
43665;DHT22;29263;48.172;11.484;2024-02-21T14:29:04;15.70;48.80
43665;DHT22;29263;48.172;11.484;2024-02-21T14:31:33;15.80;49.20
43665;DHT22;29263;48.172;11.484;2024-02-21T14:33:58;16.00;49.70
43665;DHT22;29263;48.172;11.484;2024-02-21T14:36:26;16.20;50.40
43665;DHT22;29263;48.172;11.484;2024-02-21T14:38:52;16.50;47.60
43665;DHT22;29263;48.172;11.484;2024-02-21T14:41:18;16.70;48.10
43665;DHT22;29263;48.172;11.484;2024-02-21T14:43:44;17.00;46.50
43665;DHT22;29263;48.172;11.484;2024-02-21T14:46:10;17.10;45.70
43665;DHT22;29263;48.172;11.484;2024-02-21T14:48:37;17.10;47.10
43665;DHT22;29263;48.172;11.484;2024-02-21T14:51:03;16.80;46.60
43665;DHT22;29263;48.172;11.484;2024-02-21T14:53:29;16.60;48.30
43665;DHT22;29263;48.172;11.484;2024-02-21T14:55:56;16.30;47.70
43665;DHT22;29263;48.172;11.484;2024-02-21T14:58:23;16.00;47.80
43665;DHT22;29263;48.172;11.484;2024-02-21T15:00:49;15.70;48.40
43665;DHT22;29263;48.172;11.484;2024-02-21T15:03:16;15.40;48.80
43665;DHT22;29263;48.172;11.484;2024-02-21T15:05:44;15.40;49.90
43665;DHT22;29263;48.172;11.484;2024-02-21T15:08:10;15.20;49.80
43665;DHT22;29263;48.172;11.484;2024-02-21T15:10:37;15.10;50.30
43665;DHT22;29263;48.172;11.484;2024-02-21T15:13:03;15.00;49.70
43665;DHT22;29263;48.172;11.484;2024-02-21T15:15:32;14.80;51.50
43665;DHT22;29263;48.172;11.484;2024-02-21T15:18:00;14.70;51.20
43665;DHT22;29263;48.172;11.484;2024-02-21T15:20:39;14.60;51.90
43665;DHT22;29263;48.172;11.484;2024-02-21T15:23:14;14.40;53.70
43665;DHT22;29263;48.172;11.484;2024-02-21T15:26:01;14.20;52.50
43665;DHT22;29263;48.172;11.484;2024-02-21T15:28:33;14.10;53.90
43665;DHT22;29263;48.172;11.484;2024-02-21T15:31:02;14.00;53.10
43665;DHT22;29263;48.172;11.484;2024-02-21T15:33:29;13.80;55.00
43665;DHT22;29263;48.172;11.484;2024-02-21T15:35:55;13.70;57.50
43665;DHT22;29263;48.172;11.484;2024-02-21T15:38:45;13.60;56.40